sensor_id;sensor_type;location;lat;lon;timestamp;P1;durP1;ratioP1;P2;durP2;ratioP2
58294;SDS011;45705;55.592;37.460;2023-02-28T00:01:22;14.00;;;6.30;;
58294;SDS011;45705;55.592;37.460;2023-02-28T00:03:48;14.15;;;6.28;;
58294;SDS011;45705;55.592;37.460;2023-02-28T00:06:15;11.45;;;6.05;;
58294;SDS011;45705;55.592;37.460;2023-02-28T00:08:41;12.90;;;6.38;;
58294;SDS011;45705;55.592;37.460;2023-02-28T00:11:11;11.30;;;6.47;;
58294;SDS011;45705;55.592;37.460;2023-02-28T00:13:40;11.00;;;6.68;;
58294;SDS011;45705;55.592;37.460;2023-02-28T00:18:38;11.60;;;6.00;;
58294;SDS011;45705;55.592;37.460;2023-02-28T00:21:04;12.57;;;6.15;;
58294;SDS011;45705;55.592;37.460;2023-02-28T00:23:30;12.63;;;6.80;;
58294;SDS011;45705;55.592;37.460;2023-02-28T00:25:56;12.88;;;6.80;;
58294;SDS011;45705;55.592;37.460;2023-02-28T00:28:22;12.20;;;6.18;;
58294;SDS011;45705;55.592;37.460;2023-02-28T00:30:48;12.00;;;6.50;;
58294;SDS011;45705;55.592;37.460;2023-02-28T00:33:14;12.77;;;7.07;;
58294;SDS011;45705;55.592;37.460;2023-02-28T00:35:39;13.15;;;6.82;;
58294;SDS011;45705;55.592;37.460;2023-02-28T00:38:07;11.60;;;6.63;;
58294;SDS011;45705;55.592;37.460;2023-02-28T00:40:34;12.90;;;6.70;;
58294;SDS011;45705;55.592;37.460;2023-02-28T00:43:00;12.32;;;6.43;;
58294;SDS011;45705;55.592;37.460;2023-02-28T00:45:25;12.25;;;7.15;;
58294;SDS011;45705;55.592;37.460;2023-02-28T00:47:51;10.77;;;6.35;;
58294;SDS011;45705;55.592;37.460;2023-02-28T00:50:18;13.85;;;6.28;;
58294;SDS011;45705;55.592;37.460;2023-02-28T00:52:45;12.27;;;6.65;;
58294;SDS011;45705;55.592;37.460;2023-02-28T00:55:13;12.32;;;6.70;;
58294;SDS011;45705;55.592;37.460;2023-02-28T00:57:39;13.43;;;6.82;;
58294;SDS011;45705;55.592;37.460;2023-02-28T01:00:05;15.02;;;6.60;;
58294;SDS011;45705;55.592;37.460;2023-02-28T01:02:32;13.00;;;6.80;;
58294;SDS011;45705;55.592;37.460;2023-02-28T01:04:58;12.82;;;6.07;;
58294;SDS011;45705;55.592;37.460;2023-02-28T01:07:24;11.20;;;6.43;;
58294;SDS011;45705;55.592;37.460;2023-02-28T01:09:50;13.07;;;7.30;;
58294;SDS011;45705;55.592;37.460;2023-02-28T01:12:15;12.70;;;6.85;;
58294;SDS011;45705;55.592;37.460;2023-02-28T01:14:41;13.70;;;7.22;;
58294;SDS011;45705;55.592;37.460;2023-02-28T01:17:08;11.35;;;6.43;;
58294;SDS011;45705;55.592;37.460;2023-02-28T01:19:33;14.20;;;7.53;;
58294;SDS011;45705;55.592;37.460;2023-02-28T01:22:02;12.00;;;6.82;;
58294;SDS011;45705;55.592;37.460;2023-02-28T01:24:29;12.45;;;6.13;;
58294;SDS011;45705;55.592;37.460;2023-02-28T01:26:55;18.40;;;7.28;;
58294;SDS011;45705;55.592;37.460;2023-02-28T01:29:21;10.70;;;6.40;;
58294;SDS011;45705;55.592;37.460;2023-02-28T01:31:46;13.80;;;6.78;;
58294;SDS011;45705;55.592;37.460;2023-02-28T01:34:12;11.00;;;5.90;;
58294;SDS011;45705;55.592;37.460;2023-02-28T01:36:38;10.20;;;5.80;;
58294;SDS011;45705;55.592;37.460;2023-02-28T01:39:03;10.38;;;5.68;;
58294;SDS011;45705;55.592;37.460;2023-02-28T01:41:30;13.23;;;6.25;;
58294;SDS011;45705;55.592;37.460;2023-02-28T01:46:33;10.48;;;6.18;;
58294;SDS011;45705;55.592;37.460;2023-02-28T01:51:34;10.93;;;6.10;;
58294;SDS011;45705;55.592;37.460;2023-02-28T01:54:11;11.40;;;5.63;;
58294;SDS011;45705;55.592;37.460;2023-02-28T01:56:46;9.63;;;5.35;;
58294;SDS011;45705;55.592;37.460;2023-02-28T01:59:21;12.10;;;6.85;;
58294;SDS011;45705;55.592;37.460;2023-02-28T02:01:51;11.23;;;6.00;;
58294;SDS011;45705;55.592;37.460;2023-02-28T02:04:18;11.90;;;6.35;;
58294;SDS011;45705;55.592;37.460;2023-02-28T02:06:48;11.68;;;6.38;;
58294;SDS011;45705;55.592;37.460;2023-02-28T02:09:15;14.25;;;6.70;;
58294;SDS011;45705;55.592;37.460;2023-02-28T02:11:41;11.25;;;4.72;;
58294;SDS011;45705;55.592;37.460;2023-02-28T02:38:55;11.88;;;5.82;;
58294;SDS011;45705;55.592;37.460;2023-02-28T02:41:32;12.15;;;6.28;;
58294;SDS011;45705;55.592;37.460;2023-02-28T02:44:07;11.23;;;5.85;;
58294;SDS011;45705;55.592;37.460;2023-02-28T02:46:41;10.55;;;5.55;;
58294;SDS011;45705;55.592;37.460;2023-02-28T02:49:10;9.13;;;5.95;;
58294;SDS011;45705;55.592;37.460;2023-02-28T02:51:41;9.45;;;5.30;;
58294;SDS011;45705;55.592;37.460;2023-02-28T02:54:08;8.02;;;4.82;;
58294;SDS011;45705;55.592;37.460;2023-02-28T02:56:35;9.38;;;4.80;;
58294;SDS011;45705;55.592;37.460;2023-02-28T02:59:06;10.70;;;5.53;;
58294;SDS011;45705;55.592;37.460;2023-02-28T03:01:35;8.95;;;4.88;;
58294;SDS011;45705;55.592;37.460;2023-02-28T03:04:07;8.70;;;5.20;;
58294;SDS011;45705;55.592;37.460;2023-02-28T03:06:46;9.13;;;4.90;;
58294;SDS011;45705;55.592;37.460;2023-02-28T03:09:12;9.35;;;4.88;;
58294;SDS011;45705;55.592;37.460;2023-02-28T03:11:38;9.57;;;5.32;;
58294;SDS011;45705;55.592;37.460;2023-02-28T03:14:22;11.07;;;5.57;;
58294;SDS011;45705;55.592;37.460;2023-02-28T03:22:45;7.68;;;4.53;;
58294;SDS011;45705;55.592;37.460;2023-02-28T03:28:24;9.30;;;4.95;;
58294;SDS011;45705;55.592;37.460;2023-02-28T03:33:44;10.38;;;5.18;;
58294;SDS011;45705;55.592;37.460;2023-02-28T03:36:28;9.02;;;5.28;;
58294;SDS011;45705;55.592;37.460;2023-02-28T03:39:02;8.77;;;4.97;;
58294;SDS011;45705;55.592;37.460;2023-02-28T03:41:32;8.95;;;5.03;;
58294;SDS011;45705;55.592;37.460;2023-02-28T03:47:09;7.47;;;4.72;;
58294;SDS011;45705;55.592;37.460;2023-02-28T03:49:43;9.82;;;5.13;;
58294;SDS011;45705;55.592;37.460;2023-02-28T03:52:14;9.15;;;4.80;;
58294;SDS011;45705;55.592;37.460;2023-02-28T03:54:45;8.80;;;4.85;;
58294;SDS011;45705;55.592;37.460;2023-02-28T04:00:08;11.75;;;5.32;;
58294;SDS011;45705;55.592;37.460;2023-02-28T04:02:41;8.57;;;4.13;;
58294;SDS011;45705;55.592;37.460;2023-02-28T04:05:07;10.63;;;4.78;;
58294;SDS011;45705;55.592;37.460;2023-02-28T04:07:33;8.57;;;4.22;;
58294;SDS011;45705;55.592;37.460;2023-02-28T04:09:59;7.93;;;4.35;;
58294;SDS011;45705;55.592;37.460;2023-02-28T04:12:25;8.20;;;3.83;;
58294;SDS011;45705;55.592;37.460;2023-02-28T04:14:50;8.43;;;4.60;;
58294;SDS011;45705;55.592;37.460;2023-02-28T04:17:16;8.70;;;4.60;;
58294;SDS011;45705;55.592;37.460;2023-02-28T04:19:42;8.07;;;4.38;;
58294;SDS011;45705;55.592;37.460;2023-02-28T04:22:08;8.63;;;4.90;;
58294;SDS011;45705;55.592;37.460;2023-02-28T04:24:35;10.13;;;5.18;;
58294;SDS011;45705;55.592;37.460;2023-02-28T04:27:01;9.30;;;4.25;;
58294;SDS011;45705;55.592;37.460;2023-02-28T04:29:28;8.63;;;4.68;;
58294;SDS011;45705;55.592;37.460;2023-02-28T04:31:56;10.63;;;4.65;;
58294;SDS011;45705;55.592;37.460;2023-02-28T04:34:26;9.77;;;5.20;;
58294;SDS011;45705;55.592;37.460;2023-02-28T04:36:54;10.68;;;3.92;;
58294;SDS011;45705;55.592;37.460;2023-02-28T04:39:22;9.73;;;5.30;;
58294;SDS011;45705;55.592;37.460;2023-02-28T04:41:49;8.07;;;4.63;;
58294;SDS011;45705;55.592;37.460;2023-02-28T04:44:16;8.43;;;4.35;;
58294;SDS011;45705;55.592;37.460;2023-02-28T04:46:42;7.95;;;4.45;;
58294;SDS011;45705;55.592;37.460;2023-02-28T04:49:09;5.40;;;3.58;;
58294;SDS011;45705;55.592;37.460;2023-02-28T04:51:37;6.87;;;3.87;;
58294;SDS011;45705;55.592;37.460;2023-02-28T04:54:02;6.63;;;3.80;;
58294;SDS011;45705;55.592;37.460;2023-02-28T04:56:29;6.03;;;3.85;;
58294;SDS011;45705;55.592;37.460;2023-02-28T04:58:54;6.72;;;3.45;;
58294;SDS011;45705;55.592;37.460;2023-02-28T05:01:24;7.38;;;4.68;;
58294;SDS011;45705;55.592;37.460;2023-02-28T05:03:51;6.80;;;4.22;;
58294;SDS011;45705;55.592;37.460;2023-02-28T05:06:18;6.35;;;3.95;;
58294;SDS011;45705;55.592;37.460;2023-02-28T05:08:46;5.57;;;3.58;;
58294;SDS011;45705;55.592;37.460;2023-02-28T05:11:13;8.02;;;3.78;;
58294;SDS011;45705;55.592;37.460;2023-02-28T05:13:41;6.90;;;3.78;;
58294;SDS011;45705;55.592;37.460;2023-02-28T05:16:07;8.18;;;4.00;;
58294;SDS011;45705;55.592;37.460;2023-02-28T05:18:33;4.68;;;3.35;;
58294;SDS011;45705;55.592;37.460;2023-02-28T05:20:59;6.30;;;3.72;;
58294;SDS011;45705;55.592;37.460;2023-02-28T05:23:27;6.15;;;3.70;;
58294;SDS011;45705;55.592;37.460;2023-02-28T05:25:53;4.82;;;3.60;;
58294;SDS011;45705;55.592;37.460;2023-02-28T05:28:20;8.85;;;4.53;;
58294;SDS011;45705;55.592;37.460;2023-02-28T05:30:46;6.20;;;4.10;;
58294;SDS011;45705;55.592;37.460;2023-02-28T05:33:12;5.15;;;3.47;;
58294;SDS011;45705;55.592;37.460;2023-02-28T05:35:39;5.47;;;3.95;;
58294;SDS011;45705;55.592;37.460;2023-02-28T05:38:05;5.35;;;3.60;;
58294;SDS011;45705;55.592;37.460;2023-02-28T05:40:32;6.05;;;3.85;;
58294;SDS011;45705;55.592;37.460;2023-02-28T05:42:57;6.50;;;3.63;;
58294;SDS011;45705;55.592;37.460;2023-02-28T05:45:23;5.30;;;3.58;;
58294;SDS011;45705;55.592;37.460;2023-02-28T05:47:52;5.65;;;3.90;;
58294;SDS011;45705;55.592;37.460;2023-02-28T05:50:19;6.47;;;4.18;;
58294;SDS011;45705;55.592;37.460;2023-02-28T05:52:48;7.80;;;3.78;;
58294;SDS011;45705;55.592;37.460;2023-02-28T05:55:15;6.82;;;3.58;;
58294;SDS011;45705;55.592;37.460;2023-02-28T05:57:41;4.72;;;3.63;;
58294;SDS011;45705;55.592;37.460;2023-02-28T06:00:07;4.57;;;3.60;;
58294;SDS011;45705;55.592;37.460;2023-02-28T06:02:38;4.18;;;3.25;;
58294;SDS011;45705;55.592;37.460;2023-02-28T06:05:06;5.97;;;4.00;;
58294;SDS011;45705;55.592;37.460;2023-02-28T06:07:39;5.05;;;3.40;;
58294;SDS011;45705;55.592;37.460;2023-02-28T06:10:04;4.47;;;3.35;;
58294;SDS011;45705;55.592;37.460;2023-02-28T06:12:30;4.63;;;3.38;;
58294;SDS011;45705;55.592;37.460;2023-02-28T06:14:56;5.68;;;3.67;;
58294;SDS011;45705;55.592;37.460;2023-02-28T06:17:22;5.13;;;4.03;;
58294;SDS011;45705;55.592;37.460;2023-02-28T06:19:47;4.63;;;3.47;;
58294;SDS011;45705;55.592;37.460;2023-02-28T06:22:13;4.60;;;3.00;;
58294;SDS011;45705;55.592;37.460;2023-02-28T06:24:39;5.57;;;3.92;;
58294;SDS011;45705;55.592;37.460;2023-02-28T06:27:04;6.72;;;3.58;;
58294;SDS011;45705;55.592;37.460;2023-02-28T06:29:31;4.93;;;3.40;;
58294;SDS011;45705;55.592;37.460;2023-02-28T06:31:58;4.63;;;3.45;;
58294;SDS011;45705;55.592;37.460;2023-02-28T06:34:24;5.95;;;3.55;;
58294;SDS011;45705;55.592;37.460;2023-02-28T06:36:50;5.30;;;3.38;;
58294;SDS011;45705;55.592;37.460;2023-02-28T06:39:17;5.25;;;3.38;;
58294;SDS011;45705;55.592;37.460;2023-02-28T06:41:43;5.05;;;3.17;;
58294;SDS011;45705;55.592;37.460;2023-02-28T06:44:15;5.35;;;3.63;;
58294;SDS011;45705;55.592;37.460;2023-02-28T06:46:43;4.60;;;3.20;;
58294;SDS011;45705;55.592;37.460;2023-02-28T06:49:10;4.32;;;3.40;;
58294;SDS011;45705;55.592;37.460;2023-02-28T06:51:37;5.85;;;3.65;;
58294;SDS011;45705;55.592;37.460;2023-02-28T06:54:05;6.45;;;4.03;;
58294;SDS011;45705;55.592;37.460;2023-02-28T06:56:34;5.30;;;3.60;;
58294;SDS011;45705;55.592;37.460;2023-02-28T06:59:00;8.13;;;3.35;;
58294;SDS011;45705;55.592;37.460;2023-02-28T07:01:27;5.15;;;3.40;;
58294;SDS011;45705;55.592;37.460;2023-02-28T07:03:53;4.63;;;2.70;;
58294;SDS011;45705;55.592;37.460;2023-02-28T07:06:21;4.57;;;3.28;;
58294;SDS011;45705;55.592;37.460;2023-02-28T07:08:50;5.55;;;3.47;;
58294;SDS011;45705;55.592;37.460;2023-02-28T07:11:18;3.90;;;2.90;;
58294;SDS011;45705;55.592;37.460;2023-02-28T07:13:44;5.15;;;3.22;;
58294;SDS011;45705;55.592;37.460;2023-02-28T07:16:12;4.85;;;2.90;;
58294;SDS011;45705;55.592;37.460;2023-02-28T07:18:39;6.47;;;3.33;;
58294;SDS011;45705;55.592;37.460;2023-02-28T07:21:06;5.03;;;3.10;;
58294;SDS011;45705;55.592;37.460;2023-02-28T07:23:33;5.50;;;3.38;;
58294;SDS011;45705;55.592;37.460;2023-02-28T07:25:59;5.03;;;3.15;;
58294;SDS011;45705;55.592;37.460;2023-02-28T07:28:25;6.03;;;3.45;;
58294;SDS011;45705;55.592;37.460;2023-02-28T07:30:51;5.47;;;3.35;;
58294;SDS011;45705;55.592;37.460;2023-02-28T07:33:17;5.45;;;2.88;;
58294;SDS011;45705;55.592;37.460;2023-02-28T07:35:43;5.82;;;3.17;;
58294;SDS011;45705;55.592;37.460;2023-02-28T07:38:09;5.70;;;3.33;;
58294;SDS011;45705;55.592;37.460;2023-02-28T07:40:35;6.40;;;3.30;;
58294;SDS011;45705;55.592;37.460;2023-02-28T07:43:01;7.45;;;3.83;;
58294;SDS011;45705;55.592;37.460;2023-02-28T07:45:28;5.45;;;2.83;;
58294;SDS011;45705;55.592;37.460;2023-02-28T07:47:55;5.10;;;3.25;;
58294;SDS011;45705;55.592;37.460;2023-02-28T07:50:21;5.28;;;3.25;;
58294;SDS011;45705;55.592;37.460;2023-02-28T07:52:47;6.45;;;3.17;;
58294;SDS011;45705;55.592;37.460;2023-02-28T07:55:13;6.35;;;2.60;;
58294;SDS011;45705;55.592;37.460;2023-02-28T07:57:39;5.30;;;2.78;;
58294;SDS011;45705;55.592;37.460;2023-02-28T08:00:06;5.97;;;3.35;;
58294;SDS011;45705;55.592;37.460;2023-02-28T08:02:39;8.45;;;3.83;;
58294;SDS011;45705;55.592;37.460;2023-02-28T08:05:06;5.63;;;3.55;;
58294;SDS011;45705;55.592;37.460;2023-02-28T08:07:32;6.28;;;3.45;;
58294;SDS011;45705;55.592;37.460;2023-02-28T08:09:58;8.13;;;3.78;;
58294;SDS011;45705;55.592;37.460;2023-02-28T08:12:24;6.43;;;3.83;;
58294;SDS011;45705;55.592;37.460;2023-02-28T08:14:50;7.20;;;3.45;;
58294;SDS011;45705;55.592;37.460;2023-02-28T08:17:16;8.00;;;3.75;;
58294;SDS011;45705;55.592;37.460;2023-02-28T08:19:44;8.18;;;3.75;;
58294;SDS011;45705;55.592;37.460;2023-02-28T08:22:11;5.97;;;3.72;;
58294;SDS011;45705;55.592;37.460;2023-02-28T08:24:37;6.40;;;3.63;;
58294;SDS011;45705;55.592;37.460;2023-02-28T08:27:02;7.05;;;3.33;;
58294;SDS011;45705;55.592;37.460;2023-02-28T08:29:28;6.40;;;3.28;;
58294;SDS011;45705;55.592;37.460;2023-02-28T08:31:55;4.80;;;3.22;;
58294;SDS011;45705;55.592;37.460;2023-02-28T08:34:21;5.75;;;3.63;;
58294;SDS011;45705;55.592;37.460;2023-02-28T08:36:47;6.53;;;3.30;;
58294;SDS011;45705;55.592;37.460;2023-02-28T08:39:12;7.45;;;3.90;;
58294;SDS011;45705;55.592;37.460;2023-02-28T08:41:38;6.72;;;3.63;;
58294;SDS011;45705;55.592;37.460;2023-02-28T08:44:04;5.45;;;3.53;;
58294;SDS011;45705;55.592;37.460;2023-02-28T08:46:29;5.05;;;2.85;;
58294;SDS011;45705;55.592;37.460;2023-02-28T08:48:56;7.05;;;3.33;;
58294;SDS011;45705;55.592;37.460;2023-02-28T08:51:25;5.95;;;3.38;;
58294;SDS011;45705;55.592;37.460;2023-02-28T08:53:52;7.03;;;3.67;;
58294;SDS011;45705;55.592;37.460;2023-02-28T08:56:19;5.90;;;3.40;;
58294;SDS011;45705;55.592;37.460;2023-02-28T08:58:45;5.57;;;3.35;;
58294;SDS011;45705;55.592;37.460;2023-02-28T09:01:13;12.32;;;4.00;;
58294;SDS011;45705;55.592;37.460;2023-02-28T09:03:44;9.30;;;4.45;;
58294;SDS011;45705;55.592;37.460;2023-02-28T09:06:11;6.63;;;3.83;;
58294;SDS011;45705;55.592;37.460;2023-02-28T09:08:37;8.38;;;3.60;;
58294;SDS011;45705;55.592;37.460;2023-02-28T09:11:04;6.97;;;3.60;;
58294;SDS011;45705;55.592;37.460;2023-02-28T09:13:31;5.78;;;3.53;;
58294;SDS011;45705;55.592;37.460;2023-02-28T09:15:57;8.32;;;3.85;;
58294;SDS011;45705;55.592;37.460;2023-02-28T09:18:24;7.80;;;3.33;;
58294;SDS011;45705;55.592;37.460;2023-02-28T09:20:51;6.63;;;3.13;;
58294;SDS011;45705;55.592;37.460;2023-02-28T09:23:17;6.68;;;3.20;;
58294;SDS011;45705;55.592;37.460;2023-02-28T09:25:51;7.53;;;3.90;;
58294;SDS011;45705;55.592;37.460;2023-02-28T09:28:18;5.30;;;2.90;;
58294;SDS011;45705;55.592;37.460;2023-02-28T09:30:46;6.63;;;3.10;;
58294;SDS011;45705;55.592;37.460;2023-02-28T09:33:14;7.28;;;3.50;;
58294;SDS011;45705;55.592;37.460;2023-02-28T09:35:40;5.88;;;3.25;;
58294;SDS011;45705;55.592;37.460;2023-02-28T09:38:08;6.57;;;3.22;;
58294;SDS011;45705;55.592;37.460;2023-02-28T09:40:41;7.10;;;3.50;;
58294;SDS011;45705;55.592;37.460;2023-02-28T09:43:15;5.75;;;3.60;;
58294;SDS011;45705;55.592;37.460;2023-02-28T09:45:44;7.28;;;3.30;;
58294;SDS011;45705;55.592;37.460;2023-02-28T09:48:23;5.63;;;3.20;;
58294;SDS011;45705;55.592;37.460;2023-02-28T09:50:55;6.05;;;3.03;;
58294;SDS011;45705;55.592;37.460;2023-02-28T09:53:28;5.38;;;3.10;;
58294;SDS011;45705;55.592;37.460;2023-02-28T09:56:01;6.40;;;3.50;;
58294;SDS011;45705;55.592;37.460;2023-02-28T09:58:40;7.53;;;3.67;;
58294;SDS011;45705;55.592;37.460;2023-02-28T10:01:21;7.05;;;3.33;;
58294;SDS011;45705;55.592;37.460;2023-02-28T10:03:56;4.25;;;2.90;;
58294;SDS011;45705;55.592;37.460;2023-02-28T10:06:31;6.35;;;3.53;;
58294;SDS011;45705;55.592;37.460;2023-02-28T10:09:10;5.40;;;2.90;;
58294;SDS011;45705;55.592;37.460;2023-02-28T10:11:39;6.03;;;3.55;;
58294;SDS011;45705;55.592;37.460;2023-02-28T10:14:15;9.60;;;3.33;;
58294;SDS011;45705;55.592;37.460;2023-02-28T10:21:51;6.45;;;3.30;;
58294;SDS011;45705;55.592;37.460;2023-02-28T10:24:29;8.65;;;3.03;;
58294;SDS011;45705;55.592;37.460;2023-02-28T10:27:01;4.38;;;2.53;;
58294;SDS011;45705;55.592;37.460;2023-02-28T10:29:38;5.68;;;3.17;;
58294;SDS011;45705;55.592;37.460;2023-02-28T10:32:08;8.15;;;3.45;;
58294;SDS011;45705;55.592;37.460;2023-02-28T10:34:42;7.63;;;3.58;;
58294;SDS011;45705;55.592;37.460;2023-02-28T10:37:08;7.25;;;3.33;;
58294;SDS011;45705;55.592;37.460;2023-02-28T10:39:43;7.75;;;3.47;;
58294;SDS011;45705;55.592;37.460;2023-02-28T10:42:25;7.30;;;3.58;;
58294;SDS011;45705;55.592;37.460;2023-02-28T10:47:31;6.57;;;4.05;;
58294;SDS011;45705;55.592;37.460;2023-02-28T10:49:59;6.57;;;3.40;;
58294;SDS011;45705;55.592;37.460;2023-02-28T10:52:36;6.50;;;4.00;;
58294;SDS011;45705;55.592;37.460;2023-02-28T10:55:14;6.68;;;4.00;;
58294;SDS011;45705;55.592;37.460;2023-02-28T10:57:52;10.98;;;4.00;;
58294;SDS011;45705;55.592;37.460;2023-02-28T11:00:20;6.82;;;3.03;;
58294;SDS011;45705;55.592;37.460;2023-02-28T11:02:48;10.32;;;3.10;;
58294;SDS011;45705;55.592;37.460;2023-02-28T11:05:30;7.43;;;3.47;;
58294;SDS011;45705;55.592;37.460;2023-02-28T11:08:11;12.27;;;4.00;;
58294;SDS011;45705;55.592;37.460;2023-02-28T11:10:43;7.15;;;3.97;;
58294;SDS011;45705;55.592;37.460;2023-02-28T11:13:18;8.82;;;3.72;;
58294;SDS011;45705;55.592;37.460;2023-02-28T11:15:50;7.18;;;3.90;;
58294;SDS011;45705;55.592;37.460;2023-02-28T11:19:20;6.05;;;4.13;;
58294;SDS011;45705;55.592;37.460;2023-02-28T11:23:53;6.50;;;3.67;;
58294;SDS011;45705;55.592;37.460;2023-02-28T11:26:36;8.55;;;4.40;;
58294;SDS011;45705;55.592;37.460;2023-02-28T11:29:11;7.55;;;4.32;;
58294;SDS011;45705;55.592;37.460;2023-02-28T11:31:59;6.65;;;3.60;;
58294;SDS011;45705;55.592;37.460;2023-02-28T11:34:38;7.38;;;4.15;;
58294;SDS011;45705;55.592;37.460;2023-02-28T11:37:08;7.30;;;3.95;;
58294;SDS011;45705;55.592;37.460;2023-02-28T11:39:38;10.15;;;4.45;;
58294;SDS011;45705;55.592;37.460;2023-02-28T11:53:14;5.57;;;3.60;;
58294;SDS011;45705;55.592;37.460;2023-02-28T11:55:39;10.45;;;4.00;;
58294;SDS011;45705;55.592;37.460;2023-02-28T12:26:06;6.85;;;4.40;;
58294;SDS011;45705;55.592;37.460;2023-02-28T12:28:41;7.30;;;4.20;;
58294;SDS011;45705;55.592;37.460;2023-02-28T12:33:50;7.97;;;4.40;;
58294;SDS011;45705;55.592;37.460;2023-02-28T12:36:20;6.88;;;4.15;;
58294;SDS011;45705;55.592;37.460;2023-02-28T12:39:14;9.32;;;4.93;;
58294;SDS011;45705;55.592;37.460;2023-02-28T12:41:53;7.55;;;3.90;;
58294;SDS011;45705;55.592;37.460;2023-02-28T12:47:09;11.00;;;4.75;;
58294;SDS011;45705;55.592;37.460;2023-02-28T12:49:41;7.03;;;4.38;;
58294;SDS011;45705;55.592;37.460;2023-02-28T12:52:11;7.47;;;4.55;;
58294;SDS011;45705;55.592;37.460;2023-02-28T12:54:50;8.10;;;4.05;;
58294;SDS011;45705;55.592;37.460;2023-02-28T12:57:25;9.05;;;5.10;;
58294;SDS011;45705;55.592;37.460;2023-02-28T13:00:18;11.38;;;4.82;;
58294;SDS011;45705;55.592;37.460;2023-02-28T13:08:03;6.07;;;4.25;;
58294;SDS011;45705;55.592;37.460;2023-02-28T13:10:52;6.72;;;3.97;;
58294;SDS011;45705;55.592;37.460;2023-02-28T13:13:25;5.57;;;3.90;;
58294;SDS011;45705;55.592;37.460;2023-02-28T13:16:02;6.22;;;3.78;;
58294;SDS011;45705;55.592;37.460;2023-02-28T13:18:33;7.15;;;3.67;;
58294;SDS011;45705;55.592;37.460;2023-02-28T13:21:08;6.50;;;4.18;;
58294;SDS011;45705;55.592;37.460;2023-02-28T13:26:22;9.20;;;4.18;;
58294;SDS011;45705;55.592;37.460;2023-02-28T13:32:18;8.20;;;4.60;;
58294;SDS011;45705;55.592;37.460;2023-02-28T13:35:34;5.97;;;3.78;;
58294;SDS011;45705;55.592;37.460;2023-02-28T13:39:57;6.53;;;3.80;;
58294;SDS011;45705;55.592;37.460;2023-02-28T13:50:29;5.47;;;3.60;;
58294;SDS011;45705;55.592;37.460;2023-02-28T14:06:28;6.95;;;4.05;;
58294;SDS011;45705;55.592;37.460;2023-02-28T14:09:02;8.27;;;4.25;;
58294;SDS011;45705;55.592;37.460;2023-02-28T14:11:35;5.28;;;3.60;;
58294;SDS011;45705;55.592;37.460;2023-02-28T14:14:03;9.30;;;4.50;;
58294;SDS011;45705;55.592;37.460;2023-02-28T14:16:38;8.90;;;3.35;;
58294;SDS011;45705;55.592;37.460;2023-02-28T14:19:11;13.70;;;4.55;;
58294;SDS011;45705;55.592;37.460;2023-02-28T14:21:50;6.40;;;3.75;;
58294;SDS011;45705;55.592;37.460;2023-02-28T14:33:50;7.43;;;4.28;;
58294;SDS011;45705;55.592;37.460;2023-02-28T14:36:47;7.50;;;4.50;;
58294;SDS011;45705;55.592;37.460;2023-02-28T14:39:16;8.55;;;4.78;;
58294;SDS011;45705;55.592;37.460;2023-02-28T14:41:50;7.43;;;4.68;;
58294;SDS011;45705;55.592;37.460;2023-02-28T14:46:46;10.38;;;5.55;;
58294;SDS011;45705;55.592;37.460;2023-02-28T14:52:29;10.63;;;4.50;;
58294;SDS011;45705;55.592;37.460;2023-02-28T14:54:58;13.57;;;5.57;;
58294;SDS011;45705;55.592;37.460;2023-02-28T14:57:32;9.15;;;4.63;;
58294;SDS011;45705;55.592;37.460;2023-02-28T15:00:21;6.82;;;4.32;;
58294;SDS011;45705;55.592;37.460;2023-02-28T15:02:45;9.32;;;4.90;;
58294;SDS011;45705;55.592;37.460;2023-02-28T15:07:37;9.93;;;5.60;;
58294;SDS011;45705;55.592;37.460;2023-02-28T15:10:07;8.88;;;4.80;;
58294;SDS011;45705;55.592;37.460;2023-02-28T15:12:36;9.65;;;5.30;;
58294;SDS011;45705;55.592;37.460;2023-02-28T15:15:03;8.18;;;4.68;;
58294;SDS011;45705;55.592;37.460;2023-02-28T15:17:29;8.15;;;4.85;;
58294;SDS011;45705;55.592;37.460;2023-02-28T15:19:55;10.25;;;4.70;;
58294;SDS011;45705;55.592;37.460;2023-02-28T15:22:27;5.50;;;3.78;;
58294;SDS011;45705;55.592;37.460;2023-02-28T15:24:58;7.93;;;4.68;;
58294;SDS011;45705;55.592;37.460;2023-02-28T15:27:25;7.30;;;4.68;;
58294;SDS011;45705;55.592;37.460;2023-02-28T15:29:54;9.07;;;4.50;;
58294;SDS011;45705;55.592;37.460;2023-02-28T15:32:24;7.55;;;4.50;;
58294;SDS011;45705;55.592;37.460;2023-02-28T15:34:53;8.68;;;4.43;;
58294;SDS011;45705;55.592;37.460;2023-02-28T15:37:32;7.55;;;4.30;;
58294;SDS011;45705;55.592;37.460;2023-02-28T15:40:14;14.07;;;4.97;;
58294;SDS011;45705;55.592;37.460;2023-02-28T15:42:59;8.25;;;4.25;;
58294;SDS011;45705;55.592;37.460;2023-02-28T15:53:38;9.20;;;4.57;;
58294;SDS011;45705;55.592;37.460;2023-02-28T15:58:56;6.28;;;3.97;;
58294;SDS011;45705;55.592;37.460;2023-02-28T16:01:25;9.63;;;5.07;;
58294;SDS011;45705;55.592;37.460;2023-02-28T16:03:57;6.68;;;3.78;;
58294;SDS011;45705;55.592;37.460;2023-02-28T16:06:33;7.40;;;4.93;;
58294;SDS011;45705;55.592;37.460;2023-02-28T16:09:02;8.55;;;4.35;;
58294;SDS011;45705;55.592;37.460;2023-02-28T16:11:29;6.95;;;4.40;;
58294;SDS011;45705;55.592;37.460;2023-02-28T16:13:57;6.53;;;4.13;;
58294;SDS011;45705;55.592;37.460;2023-02-28T16:16:24;11.82;;;5.20;;
58294;SDS011;45705;55.592;37.460;2023-02-28T16:18:53;10.82;;;5.60;;
58294;SDS011;45705;55.592;37.460;2023-02-28T16:21:20;7.95;;;4.45;;
58294;SDS011;45705;55.592;37.460;2023-02-28T16:23:45;9.25;;;4.90;;
58294;SDS011;45705;55.592;37.460;2023-02-28T16:26:18;7.07;;;4.15;;
58294;SDS011;45705;55.592;37.460;2023-02-28T16:28:46;7.20;;;3.92;;
58294;SDS011;45705;55.592;37.460;2023-02-28T16:31:12;8.73;;;4.20;;
58294;SDS011;45705;55.592;37.460;2023-02-28T16:33:42;8.18;;;4.85;;
58294;SDS011;45705;55.592;37.460;2023-02-28T16:36:14;8.15;;;4.25;;
58294;SDS011;45705;55.592;37.460;2023-02-28T16:38:41;9.02;;;4.63;;
58294;SDS011;45705;55.592;37.460;2023-02-28T16:41:07;7.88;;;4.43;;
58294;SDS011;45705;55.592;37.460;2023-02-28T16:43:45;8.50;;;4.40;;
58294;SDS011;45705;55.592;37.460;2023-02-28T16:46:12;13.30;;;5.28;;
58294;SDS011;45705;55.592;37.460;2023-02-28T16:48:38;8.50;;;4.38;;
58294;SDS011;45705;55.592;37.460;2023-02-28T16:51:07;8.80;;;4.80;;
58294;SDS011;45705;55.592;37.460;2023-02-28T16:53:36;7.45;;;4.15;;
58294;SDS011;45705;55.592;37.460;2023-02-28T16:56:02;7.22;;;4.30;;
58294;SDS011;45705;55.592;37.460;2023-02-28T16:58:28;7.30;;;4.50;;
58294;SDS011;45705;55.592;37.460;2023-02-28T17:00:54;6.70;;;4.22;;
58294;SDS011;45705;55.592;37.460;2023-02-28T17:03:23;7.78;;;4.25;;
58294;SDS011;45705;55.592;37.460;2023-02-28T17:05:51;7.45;;;4.35;;
58294;SDS011;45705;55.592;37.460;2023-02-28T17:08:17;8.32;;;4.65;;
58294;SDS011;45705;55.592;37.460;2023-02-28T17:10:44;9.68;;;4.95;;
58294;SDS011;45705;55.592;37.460;2023-02-28T17:13:10;7.13;;;4.20;;
58294;SDS011;45705;55.592;37.460;2023-02-28T17:15:36;6.60;;;3.58;;
58294;SDS011;45705;55.592;37.460;2023-02-28T17:18:03;7.50;;;3.72;;
58294;SDS011;45705;55.592;37.460;2023-02-28T17:20:29;6.50;;;3.72;;
58294;SDS011;45705;55.592;37.460;2023-02-28T17:22:55;6.05;;;3.38;;
58294;SDS011;45705;55.592;37.460;2023-02-28T17:25:22;8.23;;;4.13;;
58294;SDS011;45705;55.592;37.460;2023-02-28T17:27:48;7.82;;;4.07;;
58294;SDS011;45705;55.592;37.460;2023-02-28T17:30:23;7.70;;;3.95;;
58294;SDS011;45705;55.592;37.460;2023-02-28T17:32:57;6.10;;;3.83;;